createdAt,value
2023-06-10T00:00:49.174Z,100376.16
2023-06-10T00:01:53.750Z,100374.28
2023-06-10T00:02:57.303Z,100372.59
2023-06-10T00:04:00.963Z,100370.94
2023-06-10T00:05:04.941Z,100380.78
2023-06-10T00:06:08.542Z,100380.78
2023-06-10T00:07:11.998Z,100376.16
2023-06-10T00:08:17.510Z,100374.88
2023-06-10T00:09:20.521Z,100373.44
2023-06-10T00:10:24.673Z,100379.72
2023-06-10T00:11:28.276Z,100373.44
2023-06-10T00:12:32.805Z,100375.94
2023-06-10T00:13:35.961Z,100380.34
2023-06-10T00:14:40.090Z,100378.06
2023-06-10T00:15:43.659Z,100377.69
2023-06-10T00:16:47.490Z,100375.31
2023-06-10T00:17:51.268Z,100373.06
2023-06-10T00:18:57.976Z,100370.78
2023-06-10T00:20:01.232Z,100368.47
2023-06-10T00:21:06.543Z,100377.22
2023-06-10T00:22:11.124Z,100372.47
2023-06-10T00:23:14.890Z,100371.03
2023-06-10T00:24:18.631Z,100370.22
2023-06-10T00:25:22.007Z,100371.03
2023-06-10T00:26:25.612Z,100377.06
2023-06-10T00:27:32.985Z,100385.44
2023-06-10T00:28:37.477Z,100376.03
2023-06-10T00:29:40.618Z,100377.53
2023-06-10T00:30:43.750Z,100375.78
2023-06-10T00:31:48.494Z,100386.91
2023-06-10T00:32:52.111Z,100376.47
2023-06-10T00:33:55.864Z,100378.81
2023-06-10T00:34:59.119Z,100379.03
2023-06-10T00:36:02.409Z,100375.31
2023-06-10T00:37:05.559Z,100384.25
2023-06-10T00:38:08.788Z,100378.22
2023-06-10T00:39:13.048Z,100376.16
2023-06-10T00:40:16.525Z,100374.53
2023-06-10T00:41:19.527Z,100382.84
2023-06-10T00:42:26.350Z,100371.94
2023-06-10T00:43:30.797Z,100373.00
2023-06-10T00:44:33.918Z,100376.69
2023-06-10T00:45:37.511Z,100372.31
2023-06-10T00:46:41.509Z,100381.09
2023-06-10T00:47:45.130Z,100376.09
2023-06-10T00:48:48.333Z,100373.75
2023-06-10T00:49:52.493Z,100374.56
2023-06-10T00:50:56.202Z,100374.81
2023-06-10T00:51:59.770Z,100375.03
2023-06-10T00:53:03.453Z,100373.97
2023-06-10T00:54:07.011Z,100381.53
2023-06-10T00:55:10.593Z,100380.94
2023-06-10T00:56:14.248Z,100381.53
2023-06-10T00:57:17.540Z,100377.75
2023-06-10T00:58:20.838Z,100371.94
2023-06-10T00:59:24.471Z,100377.00
2023-06-10T01:00:28.548Z,100377.47
2023-06-10T01:01:31.920Z,100372.00
2023-06-10T01:02:38.852Z,100374.13
2023-06-10T01:03:42.465Z,100371.41
2023-06-10T01:04:45.761Z,100371.41
2023-06-10T01:05:53.433Z,100371.19
2023-06-10T01:07:27.824Z,100366.78
2023-06-10T01:08:40.035Z,100372.84
2023-06-10T01:10:03.330Z,100371.41
2023-06-10T01:11:09.177Z,100370.81
2023-06-10T01:12:14.086Z,100370.41
2023-06-10T01:13:17.793Z,100365.22
2023-06-10T01:14:22.376Z,100363.31
2023-06-10T01:15:26.101Z,100359.16
2023-06-10T01:16:29.887Z,100359.16
2023-06-10T01:17:33.839Z,100362.09
2023-06-10T01:18:40.308Z,100361.72
2023-06-10T01:19:45.833Z,100361.72
2023-06-10T01:20:52.002Z,100359.22
2023-06-10T01:21:56.615Z,100367.38
2023-06-10T01:23:00.588Z,100363.84
2023-06-10T01:24:04.262Z,100367.16
2023-06-10T01:25:09.812Z,100362.56
2023-06-10T01:26:13.503Z,100361.72
2023-06-10T01:27:17.290Z,100358.78
2023-06-10T01:28:33.162Z,100355.25
2023-06-10T01:29:40.175Z,100359.59
2023-06-10T01:31:13.280Z,100360.84
2023-06-10T01:32:25.072Z,100359.78
2023-06-10T01:33:37.833Z,100357.06
2023-06-10T01:34:41.551Z,100359.31
2023-06-10T01:35:45.767Z,100356.59
2023-06-10T01:36:49.656Z,100356.59
2023-06-10T01:37:52.661Z,100358.25
2023-06-10T01:38:56.303Z,100356.97
2023-06-10T01:40:00.508Z,100356.13
2023-06-10T01:41:03.576Z,100350.69
2023-06-10T01:42:08.450Z,100357.78
2023-06-10T01:43:13.066Z,100358.63
2023-06-10T01:44:21.469Z,100361.13
2023-06-10T01:45:25.365Z,100353.81
2023-06-10T01:46:29.203Z,100356.28
2023-06-10T01:47:32.884Z,100356.88
2023-06-10T01:48:37.462Z,100353.94
2023-06-10T01:49:41.064Z,100354.03
2023-06-10T01:50:45.983Z,100361.13
2023-06-10T01:51:49.255Z,100354.25
2023-06-10T01:52:52.883Z,100354.25
2023-06-10T01:53:57.330Z,100352.56
2023-06-10T01:55:00.867Z,100359.31
2023-06-10T01:56:04.535Z,100355.50
2023-06-10T01:57:08.266Z,100357.19
2023-06-10T01:58:11.749Z,100355.50
2023-06-10T01:59:15.268Z,100353.63
2023-06-10T02:00:18.520Z,100353.41
2023-06-10T02:01:22.320Z,100355.06
2023-06-10T02:02:26.824Z,100365.97
2023-06-10T02:03:30.742Z,100357.59
2023-06-10T02:04:34.475Z,100363.25
2023-06-10T02:05:40.178Z,100371.41
2023-06-10T02:06:44.684Z,100369.75
2023-06-10T02:07:48.136Z,100374.34
2023-06-10T02:08:51.807Z,100371.63
2023-06-10T02:09:55.170Z,100373.50
2023-06-10T02:10:58.611Z,100378.97
2023-06-10T02:12:02.323Z,100376.84
2023-06-10T02:13:05.861Z,100386.06
2023-06-10T02:14:09.296Z,100387.75
2023-06-10T02:15:12.652Z,100385.00
2023-06-10T02:16:18.877Z,100383.34
2023-06-10T02:17:22.093Z,100395.28
2023-06-10T02:18:25.366Z,100390.91
2023-06-10T02:19:29.476Z,100385.69
2023-06-10T02:20:32.662Z,100389.47
2023-06-10T02:21:39.065Z,100389.47
2023-06-10T02:22:42.931Z,100386.97
2023-06-10T02:23:46.379Z,100384.25
2023-06-10T02:24:49.722Z,100386.13
2023-06-10T02:25:53.436Z,100391.81
2023-06-10T02:26:57.492Z,100386.38
2023-06-10T02:28:01.135Z,100386.38
2023-06-10T02:29:05.493Z,100382.84
2023-06-10T02:30:12.372Z,100383.66
2023-06-10T02:31:16.418Z,100386.59
2023-06-10T02:32:20.037Z,100380.31
2023-06-10T02:33:23.655Z,100383.88
2023-06-10T02:34:26.981Z,100388.94
2023-06-10T02:35:30.283Z,100383.47
2023-06-10T02:36:33.988Z,100382.91
2023-06-10T02:37:37.707Z,100377.25
2023-06-10T02:38:44.283Z,100381.84
2023-06-10T02:39:47.648Z,100385.41
2023-06-10T02:40:51.828Z,100380.75
2023-06-10T02:41:54.819Z,100389.53
2023-06-10T02:43:00.422Z,100377.81
2023-06-10T02:44:04.165Z,100388.72
2023-06-10T02:45:08.819Z,100386.22
2023-06-10T02:46:16.800Z,100382.06
2023-06-10T02:47:21.759Z,100381.22
2023-06-10T02:48:28.865Z,100380.19
2023-06-10T02:49:32.905Z,100383.34
2023-06-10T02:50:38.153Z,100381.69
2023-06-10T02:51:58.428Z,100381.69
2023-06-10T02:53:01.880Z,100388.19
2023-06-10T02:54:05.897Z,100391.34
2023-06-10T02:55:09.536Z,100385.41
2023-06-10T02:56:15.408Z,100381.16
2023-06-10T02:57:18.765Z,100391.22
2023-06-10T02:58:23.179Z,100380.75
2023-06-10T02:59:28.559Z,100385.41
2023-06-10T03:00:32.566Z,100382.91
2023-06-10T03:01:38.467Z,100392.34
2023-06-10T03:02:47.843Z,100384.16
2023-06-10T03:03:52.042Z,100382.91
2023-06-10T03:04:57.832Z,100383.34
2023-06-10T03:06:01.777Z,100383.34
2023-06-10T03:07:08.947Z,100385.47
2023-06-10T03:08:12.300Z,100378.56
2023-06-10T03:09:17.888Z,100376.09
2023-06-10T03:10:25.076Z,100390.75
2023-06-10T03:11:29.064Z,100375.47
2023-06-10T03:12:32.562Z,100375.84
2023-06-10T03:13:36.084Z,100382.13
2023-06-10T03:14:40.365Z,100385.06
2023-06-10T03:15:43.984Z,100384.25
2023-06-10T03:16:51.360Z,100392.66
2023-06-10T03:17:55.876Z,100383.66
2023-06-10T03:19:00.541Z,100385.31
2023-06-10T03:20:07.237Z,100380.72
2023-06-10T03:21:11.483Z,100387.19
2023-06-10T03:22:16.767Z,100389.91
2023-06-10T03:23:39.516Z,100392.66
2023-06-10T03:24:45.757Z,100391.81
2023-06-10T03:25:50.472Z,100384.69
2023-06-10T03:26:56.492Z,100378.44
2023-06-10T03:27:59.873Z,100384.69
2023-06-10T03:29:03.636Z,100379.25
2023-06-10T03:30:08.731Z,100381.97
2023-06-10T03:31:12.375Z,100380.94
2023-06-10T03:32:16.001Z,100382.59
2023-06-10T03:33:20.135Z,100382.59
2023-06-10T03:34:23.339Z,100380.94
2023-06-10T03:35:28.305Z,100374.88
2023-06-10T03:36:32.078Z,100381.34
2023-06-10T03:37:35.601Z,100381.59
2023-06-10T03:38:39.312Z,100376.38
2023-06-10T03:39:44.634Z,100374.72
2023-06-10T03:40:47.844Z,100379.09
2023-06-10T03:41:52.050Z,100380.16
2023-06-10T03:42:56.086Z,100380.16
2023-06-10T03:43:59.153Z,100377.66
2023-06-10T03:45:04.254Z,100382.28
2023-06-10T03:46:11.247Z,100382.28
2023-06-10T03:47:15.924Z,100383.94
2023-06-10T03:48:19.806Z,100378.72
2023-06-10T03:49:30.790Z,100373.88
2023-06-10T03:50:37.905Z,100370.09
2023-06-10T03:51:41.417Z,100376.59
2023-06-10T03:52:46.236Z,100373.66
2023-06-10T03:53:50.156Z,100376.75
2023-06-10T03:54:53.491Z,100377.84
2023-06-10T03:55:57.159Z,100371.56
2023-06-10T03:57:00.954Z,100362.50
2023-06-10T03:58:04.790Z,100373.97
2023-06-10T03:59:08.252Z,100369.16
2023-06-10T04:00:13.697Z,100367.47
2023-06-10T04:01:23.098Z,100360.16
2023-06-10T04:02:27.324Z,100362.03
2023-06-10T04:03:31.046Z,100360.84
2023-06-10T04:04:34.748Z,100357.28
2023-06-10T04:05:38.361Z,100357.50
2023-06-10T04:06:43.165Z,100354.16
2023-06-10T04:07:46.903Z,100355.47
2023-06-10T04:08:50.869Z,100348.81
2023-06-10T04:09:54.843Z,100362.63
2023-06-10T04:10:58.015Z,100366.00
2023-06-10T04:12:01.907Z,100357.22
2023-06-10T04:13:05.262Z,100363.13
2023-06-10T04:14:15.602Z,100367.72
2023-06-10T04:15:19.993Z,100359.56
2023-06-10T04:16:23.782Z,100363.72
2023-06-10T04:17:27.443Z,100364.53
2023-06-10T04:18:30.551Z,100366.44
2023-06-10T04:19:38.236Z,100366.69
2023-06-10T04:20:42.015Z,100367.72
2023-06-10T04:21:46.319Z,100372.69
2023-06-10T04:22:49.660Z,100368.94
2023-06-10T04:23:53.013Z,100369.78
2023-06-10T04:24:56.280Z,100371.44
2023-06-10T04:26:01.498Z,100375.84
2023-06-10T04:27:06.116Z,100381.06
2023-06-10T04:28:09.518Z,100378.34
2023-06-10T04:29:13.551Z,100377.50
2023-06-10T04:30:18.860Z,100376.44
2023-06-10T04:31:22.791Z,100378.13
2023-06-10T04:32:26.476Z,100376.84
2023-06-10T04:33:31.285Z,100374.13
2023-06-10T04:34:41.140Z,100385.81
2023-06-10T04:35:44.659Z,100384.69
2023-06-10T04:36:53.311Z,100384.47
2023-06-10T04:37:57.242Z,100385.16
2023-06-10T04:39:01.138Z,100391.50
2023-06-10T04:40:07.201Z,100385.66
2023-06-10T04:41:10.487Z,100392.75
2023-06-10T04:42:14.614Z,100389.22
2023-06-10T04:43:18.962Z,100390.88
2023-06-10T04:44:22.939Z,100395.66
2023-06-10T04:45:26.046Z,100400.41
2023-06-10T04:46:28.917Z,100401.47
2023-06-10T04:47:35.402Z,100404.78
2023-06-10T04:48:39.203Z,100409.03
2023-06-10T04:49:42.948Z,100404.47
2023-06-10T04:50:46.605Z,100406.59
2023-06-10T04:51:50.275Z,100412.44
2023-06-10T04:52:53.438Z,100409.91
2023-06-10T04:53:56.810Z,100407.00
2023-06-10T04:55:00.411Z,100405.34
2023-06-10T04:56:04.124Z,100405.34
2023-06-10T04:57:09.223Z,100404.28
2023-06-10T04:58:12.489Z,100414.34
2023-06-10T04:59:16.648Z,100415.16
2023-06-10T05:00:20.613Z,100411.22
2023-06-10T05:01:24.233Z,100404.91
2023-06-10T05:02:27.836Z,100404.75
2023-06-10T05:03:31.704Z,100399.31
2023-06-10T05:04:35.773Z,100404.50
2023-06-10T05:05:39.273Z,100401.19
2023-06-10T05:06:42.863Z,100401.63
2023-06-10T05:07:46.229Z,100399.16
2023-06-10T05:08:49.403Z,100403.34
2023-06-10T05:09:52.876Z,100409.19
2023-06-10T05:10:56.164Z,100397.69
2023-06-10T05:11:59.926Z,100397.91
2023-06-10T05:13:04.607Z,100404.66
2023-06-10T05:14:07.560Z,100405.22
2023-06-10T05:15:11.892Z,100399.59
2023-06-10T05:16:17.045Z,100403.34
2023-06-10T05:17:20.721Z,100397.91
2023-06-10T05:18:24.132Z,100395.88
2023-06-10T05:19:27.288Z,100404.25
2023-06-10T05:20:31.070Z,100398.22
2023-06-10T05:21:34.653Z,100391.25
2023-06-10T05:22:37.946Z,100397.75
2023-06-10T05:23:41.740Z,100397.75
2023-06-10T05:24:45.495Z,100395.03
2023-06-10T05:25:49.581Z,100396.91
2023-06-10T05:26:53.081Z,100399.63
2023-06-10T05:27:56.568Z,100396.09
2023-06-10T05:29:00.299Z,100405.06
2023-06-10T05:30:05.335Z,100405.91
2023-06-10T05:31:08.511Z,100402.59
2023-06-10T05:32:12.376Z,100405.47
2023-06-10T05:33:15.856Z,100401.53
2023-06-10T05:34:20.096Z,100401.75
2023-06-10T05:35:23.712Z,100403.19
2023-06-10T05:36:30.160Z,100404.47
2023-06-10T05:37:35.424Z,100400.69
2023-06-10T05:38:39.085Z,100410.28
2023-06-10T05:39:42.878Z,100405.47
2023-06-10T05:40:47.529Z,100401.25
2023-06-10T05:41:51.147Z,100413.56
2023-06-10T05:42:54.648Z,100405.63
2023-06-10T05:43:58.225Z,100410.84
2023-06-10T05:45:01.408Z,100405.81
2023-06-10T05:46:04.964Z,100411.03
2023-06-10T05:47:08.545Z,100416.22
2023-06-10T05:48:12.492Z,100421.22
2023-06-10T05:49:15.724Z,100422.84
2023-06-10T05:50:19.603Z,100418.03
2023-06-10T05:51:23.612Z,100411.53
2023-06-10T05:52:27.671Z,100410.47
2023-06-10T05:53:31.196Z,100413.56
2023-06-10T05:54:34.959Z,100416.50
2023-06-10T05:55:38.286Z,100415.00
2023-06-10T05:56:41.820Z,100415.81
2023-06-10T05:57:45.251Z,100409.81
2023-06-10T05:58:48.574Z,100410.38
2023-06-10T05:59:51.791Z,100411.47
2023-06-10T06:00:54.934Z,100406.41
2023-06-10T06:01:58.221Z,100405.41
2023-06-10T06:03:02.123Z,100410.38
2023-06-10T06:04:05.664Z,100415.16
2023-06-10T06:05:09.824Z,100416.81
2023-06-10T06:06:13.253Z,100415.63
2023-06-10T06:07:16.597Z,100422.34
2023-06-10T06:08:20.190Z,100418.13
2023-06-10T06:09:23.569Z,100417.22
2023-06-10T06:10:26.916Z,100420.47
2023-06-10T06:11:30.538Z,100416.47
2023-06-10T06:12:33.619Z,100418.72
2023-06-10T06:13:37.422Z,100418.66
2023-06-10T06:14:43.554Z,100420.91
2023-06-10T06:15:47.346Z,100420.22
2023-06-10T06:16:51.136Z,100416.00
2023-06-10T06:17:54.886Z,100423.03
2023-06-10T06:18:58.050Z,100417.13
2023-06-10T06:20:01.308Z,100420.84
2023-06-10T06:21:04.728Z,100415.91
2023-06-10T06:22:07.978Z,100419.81
2023-06-10T06:23:12.828Z,100425.53
2023-06-10T06:24:17.266Z,100425.03
2023-06-10T06:25:20.614Z,100425.00
2023-06-10T06:26:23.801Z,100428.91
2023-06-10T06:27:26.673Z,100429.75
2023-06-10T06:28:30.787Z,100426.59
2023-06-10T06:29:34.522Z,100426.81
2023-06-10T06:30:38.017Z,100430.59
2023-06-10T06:31:41.366Z,100436.78
2023-06-10T06:32:45.034Z,100437.06
2023-06-10T06:33:48.888Z,100439.91
2023-06-10T06:34:56.071Z,100436.50
2023-06-10T06:36:02.441Z,100438.78
2023-06-10T06:37:06.131Z,100435.09
2023-06-10T06:38:11.430Z,100435.09
2023-06-10T06:39:15.328Z,100436.06
2023-06-10T06:40:19.740Z,100436.19
2023-06-10T06:41:23.568Z,100432.91
2023-06-10T06:42:27.300Z,100436.72
2023-06-10T06:43:40.698Z,100442.38
2023-06-10T06:45:01.069Z,100447.56
2023-06-10T06:46:04.704Z,100440.72
2023-06-10T06:47:08.113Z,100439.28
2023-06-10T06:48:11.395Z,100442.25
2023-06-10T06:49:14.808Z,100435.63
2023-06-10T06:50:18.281Z,100439.41
2023-06-10T06:51:21.436Z,100440.22
2023-06-10T06:52:25.503Z,100433.78
2023-06-10T06:53:31.760Z,100441.63
2023-06-10T06:54:36.980Z,100437.34
2023-06-10T06:55:40.767Z,100439.72
2023-06-10T06:56:44.601Z,100437.53
2023-06-10T06:57:48.013Z,100439.41
2023-06-10T06:58:51.132Z,100438.94
2023-06-10T06:59:54.819Z,100440.09
2023-06-10T07:00:58.462Z,100449.75
2023-06-10T07:02:02.845Z,100444.59
2023-06-10T07:03:06.845Z,100446.75
2023-06-10T07:04:09.888Z,100452.00
2023-06-10T07:05:13.603Z,100449.38
2023-06-10T07:06:17.710Z,100451.63
2023-06-10T07:07:21.423Z,100450.06
2023-06-10T07:08:24.980Z,100449.75
2023-06-10T07:09:29.814Z,100454.72
2023-06-10T07:10:32.990Z,100454.56
2023-06-10T07:11:36.497Z,100457.06
2023-06-10T07:12:40.205Z,100461.69
2023-06-10T07:13:43.556Z,100457.88
2023-06-10T07:14:47.350Z,100464.44
2023-06-10T07:15:51.534Z,100466.81
2023-06-10T07:16:54.712Z,100463.34
2023-06-10T07:17:58.312Z,100460.13
2023-06-10T07:19:03.217Z,100469.25
2023-06-10T07:20:08.512Z,100477.31
2023-06-10T07:21:12.126Z,100469.78
2023-06-10T07:22:15.853Z,100469.66
2023-06-10T07:23:19.343Z,100472.06
2023-06-10T07:24:22.807Z,100476.22
2023-06-10T07:25:25.879Z,100476.06
2023-06-10T07:26:29.243Z,100475.41
2023-06-10T07:27:32.464Z,100470.94
2023-06-10T07:28:35.441Z,100476.50
2023-06-10T07:29:38.433Z,100471.31
2023-06-10T07:30:41.881Z,100474.28
2023-06-10T07:31:45.294Z,100476.69
2023-06-10T07:32:49.168Z,100475.16
2023-06-10T07:33:52.654Z,100478.03
2023-06-10T07:34:56.530Z,100485.66
2023-06-10T07:35:59.502Z,100471.47
2023-06-10T07:37:02.831Z,100469.81
2023-06-10T07:38:06.359Z,100481.25
2023-06-10T07:39:10.313Z,100479.53
2023-06-10T07:40:13.664Z,100482.28
2023-06-10T07:41:20.228Z,100478.88
2023-06-10T07:42:23.830Z,100489.94
2023-06-10T07:43:27.584Z,100479.75
2023-06-10T07:44:30.900Z,100487.41
2023-06-10T07:45:34.101Z,100488.88
2023-06-10T07:46:37.731Z,100485.00
2023-06-10T07:47:41.456Z,100480.59
2023-06-10T07:48:44.608Z,100481.00
2023-06-10T07:49:47.801Z,100481.41
2023-06-10T07:50:50.874Z,100480.09
2023-06-10T07:51:56.425Z,100481.38
2023-06-10T07:52:59.762Z,100482.16
2023-06-10T07:54:03.014Z,100482.19
2023-06-10T07:55:07.745Z,100483.06
2023-06-10T07:56:11.453Z,100477.66
2023-06-10T07:57:15.076Z,100474.91
2023-06-10T07:58:18.446Z,100473.00
2023-06-10T07:59:22.204Z,100478.19
2023-06-10T08:00:25.881Z,100484.09
2023-06-10T08:01:29.803Z,100483.34
2023-06-10T08:02:33.419Z,100484.72
2023-06-10T08:03:36.730Z,100479.72
2023-06-10T08:04:39.814Z,100481.44
2023-06-10T08:05:43.502Z,100484.91
2023-06-10T08:06:46.954Z,100486.88
2023-06-10T08:07:50.442Z,100487.69
2023-06-10T08:08:54.173Z,100485.44
2023-06-10T08:09:57.726Z,100487.38
2023-06-10T08:11:01.261Z,100486.34
2023-06-10T08:12:04.832Z,100491.00
2023-06-10T08:13:08.420Z,100487.16
2023-06-10T08:14:11.640Z,100492.34
2023-06-10T08:15:14.768Z,100501.59
2023-06-10T08:16:18.766Z,100493.19
2023-06-10T08:17:22.508Z,100497.94
2023-06-10T08:18:25.839Z,100487.16
2023-06-10T08:19:28.734Z,100491.22
2023-06-10T08:20:31.999Z,100500.22
2023-06-10T08:21:35.661Z,100500.50
2023-06-10T08:22:39.801Z,100491.75
2023-06-10T08:23:43.088Z,100492.03
2023-06-10T08:24:49.228Z,100494.09
2023-06-10T08:25:53.366Z,100489.41
2023-06-10T08:26:59.005Z,100492.03
2023-06-10T08:28:02.088Z,100505.09
2023-06-10T08:29:05.603Z,100494.91
2023-06-10T08:30:10.447Z,100494.81
2023-06-10T08:31:14.210Z,100491.84
2023-06-10T08:32:17.512Z,100489.88
2023-06-10T08:33:20.655Z,100491.94
2023-06-10T08:34:23.966Z,100493.59
2023-06-10T08:35:27.729Z,100496.59
2023-06-10T08:36:30.882Z,100495.94
2023-06-10T08:37:34.230Z,100490.78
2023-06-10T08:38:38.125Z,100499.28
2023-06-10T08:39:41.356Z,100504.28
2023-06-10T08:40:44.550Z,100502.00
2023-06-10T08:41:54.012Z,100500.50
2023-06-10T08:43:08.718Z,100504.94
2023-06-10T08:44:12.920Z,100496.56
2023-06-10T08:45:19.358Z,100499.00
2023-06-10T08:46:22.635Z,100497.59
2023-06-10T08:47:27.094Z,100503.03
2023-06-10T08:48:33.857Z,100502.41
2023-06-10T08:49:40.205Z,100503.75
2023-06-10T08:50:44.034Z,100496.50
2023-06-10T08:51:47.948Z,100509.72
2023-06-10T08:52:53.858Z,100497.53
2023-06-10T08:54:06.115Z,100504.16
2023-06-10T08:55:14.452Z,100498.53
2023-06-10T08:56:17.763Z,100506.47
2023-06-10T08:57:24.108Z,100497.94
2023-06-10T08:58:27.585Z,100493.06
2023-06-10T08:59:31.057Z,100499.22
2023-06-10T09:00:34.787Z,100495.72
2023-06-10T09:01:37.968Z,100498.72
2023-06-10T09:02:41.800Z,100497.00
2023-06-10T09:03:45.431Z,100501.72
2023-06-10T09:04:49.662Z,100490.00
2023-06-10T09:05:53.306Z,100494.56
2023-06-10T09:06:57.343Z,100495.53
2023-06-10T09:08:00.595Z,100496.25
2023-06-10T09:09:04.790Z,100499.88
2023-06-10T09:10:09.674Z,100490.59
2023-06-10T09:11:13.098Z,100489.34
2023-06-10T09:12:16.966Z,100489.41
2023-06-10T09:13:20.450Z,100494.38
2023-06-10T09:14:23.862Z,100493.63
2023-06-10T09:15:27.431Z,100487.59
2023-06-10T09:16:31.449Z,100487.88
2023-06-10T09:17:34.588Z,100484.78
2023-06-10T09:18:37.786Z,100477.66
2023-06-10T09:19:41.254Z,100485.09
2023-06-10T09:20:45.733Z,100477.50
2023-06-10T09:21:48.797Z,100488.97
2023-06-10T09:22:52.590Z,100486.09
2023-06-10T09:23:55.861Z,100477.88
2023-06-10T09:25:07.454Z,100484.28
2023-06-10T09:26:13.340Z,100489.72
2023-06-10T09:27:17.035Z,100482.72
2023-06-10T09:28:20.724Z,100482.34
2023-06-10T09:29:24.001Z,100482.03
2023-06-10T09:30:30.150Z,100481.41
2023-06-10T09:31:35.687Z,100481.78
2023-06-10T09:32:42.191Z,100479.41
2023-06-10T09:33:45.685Z,100475.31
2023-06-10T09:34:49.475Z,100484.09
2023-06-10T09:35:53.395Z,100482.13
2023-06-10T09:36:57.753Z,100483.75
2023-06-10T09:38:01.562Z,100485.84
2023-06-10T09:39:04.966Z,100476.53
2023-06-10T09:40:10.029Z,100482.84
2023-06-10T09:41:17.538Z,100482.94
2023-06-10T09:42:21.008Z,100484.56
2023-06-10T09:43:24.643Z,100489.22
2023-06-10T09:44:28.979Z,100486.66
2023-06-10T09:45:35.705Z,100484.63
2023-06-10T09:46:39.248Z,100483.06
2023-06-10T09:47:43.225Z,100488.22
2023-06-10T09:48:49.049Z,100491.97
2023-06-10T09:49:55.669Z,100481.63
2023-06-10T09:50:59.277Z,100482.00
2023-06-10T09:52:02.616Z,100489.78
2023-06-10T09:53:06.269Z,100488.50
2023-06-10T09:54:09.709Z,100487.94
2023-06-10T09:55:13.509Z,100484.34
2023-06-10T09:56:16.864Z,100479.88
2023-06-10T09:57:20.814Z,100492.50
2023-06-10T09:58:40.422Z,100482.31
2023-06-10T09:59:43.856Z,100484.53
2023-06-10T10:00:50.148Z,100489.22
2023-06-10T10:01:57.491Z,100491.59
2023-06-10T10:03:00.688Z,100489.75
2023-06-10T10:04:04.211Z,100493.22
2023-06-10T10:05:09.032Z,100496.03
2023-06-10T10:06:13.313Z,100493.69
2023-06-10T10:07:17.231Z,100493.97
2023-06-10T10:08:20.964Z,100489.22
2023-06-10T10:09:24.719Z,100493.78
2023-06-10T10:10:28.307Z,100495.84
2023-06-10T10:11:31.802Z,100497.16
2023-06-10T10:12:34.975Z,100490.28
2023-06-10T10:13:38.707Z,100493.72
2023-06-10T10:14:44.089Z,100494.94
2023-06-10T10:15:47.937Z,100491.81
2023-06-10T10:16:51.793Z,100487.19
2023-06-10T10:18:18.210Z,100491.75
2023-06-10T10:19:31.278Z,100494.94
2023-06-10T10:20:36.003Z,100490.47
2023-06-10T10:21:42.149Z,100491.44
2023-06-10T10:22:45.280Z,100486.53
2023-06-10T10:24:00.763Z,100483.41
2023-06-10T10:25:05.696Z,100481.94
2023-06-10T10:26:11.854Z,100487.16
2023-06-10T10:27:27.042Z,100487.75
2023-06-10T10:28:37.099Z,100490.28
2023-06-10T10:29:43.251Z,100491.59
2023-06-10T10:30:52.021Z,100487.97
2023-06-10T10:31:55.456Z,100491.97
2023-06-10T10:33:11.964Z,100483.91
2023-06-10T10:34:18.520Z,100489.75
2023-06-10T10:35:24.821Z,100493.84
2023-06-10T10:36:29.285Z,100491.81
2023-06-10T10:37:32.899Z,100482.31
2023-06-10T10:38:37.274Z,100487.22
2023-06-10T10:39:40.912Z,100478.25
2023-06-10T10:40:45.013Z,100489.38
2023-06-10T10:41:48.426Z,100487.53
2023-06-10T10:42:52.019Z,100480.91
2023-06-10T10:43:55.815Z,100480.66
2023-06-10T10:44:59.021Z,100481.50
2023-06-10T10:46:11.055Z,100482.91
2023-06-10T10:47:14.722Z,100481.63
2023-06-10T10:48:18.062Z,100481.00
2023-06-10T10:49:21.234Z,100490.81
2023-06-10T10:50:24.885Z,100481.31
2023-06-10T10:51:28.507Z,100483.25
2023-06-10T10:52:58.702Z,100480.50
2023-06-10T10:54:15.435Z,100491.22
2023-06-10T10:55:19.181Z,100484.09
2023-06-10T10:56:22.889Z,100486.16
2023-06-10T10:57:30.646Z,100485.28
2023-06-10T10:58:33.962Z,100486.91
2023-06-10T10:59:47.783Z,100489.66
2023-06-10T11:00:51.231Z,100481.63
2023-06-10T11:01:55.164Z,100480.63
2023-06-10T11:03:07.648Z,100493.28
2023-06-10T11:04:14.160Z,100492.06
2023-06-10T11:05:18.858Z,100488.78
2023-06-10T11:06:22.216Z,100486.31
2023-06-10T11:07:26.938Z,100489.75
2023-06-10T11:08:35.938Z,100483.00
2023-06-10T11:09:39.180Z,100484.72
2023-06-10T11:10:43.521Z,100483.66
2023-06-10T11:11:52.848Z,100481.19
2023-06-10T11:12:56.139Z,100483.59
2023-06-10T11:14:08.340Z,100494.09
2023-06-10T11:15:12.199Z,100485.53
2023-06-10T11:16:16.984Z,100486.06
2023-06-10T11:17:21.453Z,100489.41
2023-06-10T11:18:28.875Z,100487.16
2023-06-10T11:19:39.133Z,100493.66
2023-06-10T11:20:51.615Z,100485.34
2023-06-10T11:22:05.758Z,100486.19
2023-06-10T11:23:09.212Z,100491.09
2023-06-10T11:24:15.891Z,100493.34
2023-06-10T11:25:19.077Z,100485.91
2023-06-10T11:26:34.470Z,100491.41
2023-06-10T11:27:41.388Z,100488.03
2023-06-10T11:29:04.522Z,100487.81
2023-06-10T11:30:09.601Z,100491.59
2023-06-10T11:31:23.950Z,100488.94
2023-06-10T11:32:36.918Z,100489.47
2023-06-10T11:33:41.827Z,100491.94
2023-06-10T11:34:45.448Z,100484.38
2023-06-10T11:35:49.534Z,100480.72
2023-06-10T11:36:53.254Z,100487.97
2023-06-10T11:37:56.310Z,100483.22
2023-06-10T11:39:00.752Z,100486.13
2023-06-10T11:40:04.386Z,100500.47
2023-06-10T11:41:07.595Z,100486.06
2023-06-10T11:42:11.127Z,100487.78
2023-06-10T11:43:14.957Z,100488.16
2023-06-10T11:44:20.001Z,100480.13
2023-06-10T11:45:23.993Z,100482.59
2023-06-10T11:46:30.200Z,100500.59
2023-06-10T11:47:33.361Z,100485.69
2023-06-10T11:48:37.123Z,100490.50
2023-06-10T11:49:40.639Z,100489.22
2023-06-10T11:50:44.942Z,100473.53
2023-06-10T11:51:51.836Z,100486.97
2023-06-10T11:52:57.869Z,100474.56
2023-06-10T11:54:01.626Z,100482.06
2023-06-10T11:55:08.588Z,100473.44
2023-06-10T11:56:13.701Z,100479.06
2023-06-10T11:57:17.265Z,100480.47
2023-06-10T11:58:24.062Z,100479.88
2023-06-10T11:59:29.961Z,100481.38
2023-06-10T12:00:33.238Z,100474.25
2023-06-10T12:01:44.113Z,100473.09
2023-06-10T12:02:48.048Z,100472.22
2023-06-10T12:04:13.432Z,100475.44
2023-06-10T12:05:17.408Z,100477.75
2023-06-10T12:06:20.821Z,100473.84
2023-06-10T12:07:24.589Z,100468.81
2023-06-10T12:08:28.359Z,100469.00
2023-06-10T12:09:31.913Z,100476.69
2023-06-10T12:10:35.362Z,100480.81
2023-06-10T12:11:38.699Z,100479.06
2023-06-10T12:12:42.563Z,100479.31
2023-06-10T12:13:52.258Z,100480.09
2023-06-10T12:14:59.276Z,100485.47
2023-06-10T12:16:09.661Z,100484.13
2023-06-10T12:17:12.651Z,100489.53
2023-06-10T12:18:23.366Z,100484.06
2023-06-10T12:19:26.787Z,100489.00
2023-06-10T12:20:36.744Z,100485.00